createdAt,value
2016-09-26T00:00:21.701Z,0
2016-09-26T00:00:54.026Z,0
2016-09-26T00:01:26.339Z,0
2016-09-26T00:01:58.675Z,0
2016-09-26T00:02:31.015Z,0
2016-09-26T00:03:03.339Z,0
2016-09-26T00:03:35.666Z,0
2016-09-26T00:04:07.986Z,0
2016-09-26T00:04:40.318Z,0
2016-09-26T00:05:12.657Z,0
2016-09-26T00:05:45.013Z,0
2016-09-26T00:06:17.346Z,0
2016-09-26T00:06:49.678Z,0
2016-09-26T00:07:22.014Z,0
2016-09-26T00:07:54.325Z,0
2016-09-26T00:08:26.658Z,0
2016-09-26T00:08:59.035Z,0
2016-09-26T00:09:31.353Z,0
2016-09-26T00:10:03.681Z,0
2016-09-26T00:10:36.006Z,0
2016-09-26T00:11:08.322Z,0
2016-09-26T00:11:40.653Z,0
2016-09-26T00:12:12.976Z,0
2016-09-26T00:12:45.300Z,0
2016-09-26T00:13:17.629Z,0
2016-09-26T00:13:49.963Z,0
2016-09-26T00:14:22.268Z,0
2016-09-26T00:14:54.603Z,0
2016-09-26T00:15:26.931Z,0
2016-09-26T00:15:59.237Z,0
2016-09-26T00:16:31.565Z,0
2016-09-26T00:17:03.895Z,0
2016-09-26T00:17:36.218Z,0
2016-09-26T00:18:08.552Z,0
2016-09-26T00:18:40.888Z,0
2016-09-26T00:19:13.214Z,0
2016-09-26T00:19:45.546Z,0
2016-09-26T00:20:17.873Z,0
2016-09-26T00:20:50.194Z,0
2016-09-26T00:21:22.534Z,0
2016-09-26T00:21:54.872Z,0
2016-09-26T00:22:27.202Z,0
2016-09-26T00:22:59.529Z,0
2016-09-26T00:23:31.860Z,0
2016-09-26T00:24:04.175Z,0
2016-09-26T00:24:36.481Z,0
2016-09-26T00:25:08.812Z,0
2016-09-26T00:25:41.137Z,0
2016-09-26T00:26:13.472Z,0
2016-09-26T00:26:45.810Z,0
2016-09-26T00:27:18.135Z,0
2016-09-26T00:27:50.471Z,0
2016-09-26T00:28:22.807Z,0
2016-09-26T00:28:55.123Z,0
2016-09-26T00:29:27.457Z,0
2016-09-26T00:29:59.779Z,0
2016-09-26T00:30:32.110Z,0
2016-09-26T00:31:04.445Z,0
2016-09-26T00:31:36.760Z,0
2016-09-26T00:32:09.081Z,0
2016-09-26T00:32:41.405Z,0
2016-09-26T00:33:13.719Z,0
2016-09-26T00:33:46.044Z,0
2016-09-26T00:34:18.346Z,0
2016-09-26T00:34:50.660Z,0
2016-09-26T00:35:22.985Z,0
2016-09-26T00:35:55.309Z,0
2016-09-26T00:36:27.634Z,0
2016-09-26T00:36:59.962Z,0
2016-09-26T00:37:32.292Z,0
2016-09-26T00:38:04.628Z,0
2016-09-26T00:38:36.958Z,0
2016-09-26T00:39:09.273Z,0
2016-09-26T00:39:41.594Z,0
2016-09-26T00:40:13.910Z,0
2016-09-26T00:40:46.230Z,0
2016-09-26T00:41:18.557Z,0
2016-09-26T00:41:50.877Z,0
2016-09-26T00:42:23.206Z,0
2016-09-26T00:42:55.544Z,0
2016-09-26T00:43:27.873Z,0
2016-09-26T00:44:00.182Z,0
2016-09-26T00:44:32.507Z,0
2016-09-26T00:45:04.827Z,0
2016-09-26T00:45:37.138Z,0
2016-09-26T00:46:09.460Z,0
2016-09-26T00:46:41.791Z,0
2016-09-26T00:47:14.119Z,0
2016-09-26T00:47:46.455Z,0
2016-09-26T00:48:18.787Z,0
2016-09-26T00:48:51.123Z,0
2016-09-26T00:49:23.458Z,0
2016-09-26T00:49:55.809Z,0
2016-09-26T00:50:28.132Z,0
2016-09-26T00:51:00.477Z,0
2016-09-26T00:51:32.818Z,0
2016-09-26T00:52:05.154Z,0
2016-09-26T00:52:37.483Z,0
2016-09-26T00:53:09.815Z,0
2016-09-26T00:53:42.153Z,0
2016-09-26T00:54:14.490Z,0
2016-09-26T00:54:46.836Z,0
2016-09-26T00:55:19.163Z,0
2016-09-26T00:55:51.475Z,0
2016-09-26T00:56:23.817Z,0
2016-09-26T00:56:56.143Z,0
2016-09-26T00:57:28.458Z,0
2016-09-26T00:58:00.782Z,0
2016-09-26T00:58:33.112Z,0
2016-09-26T00:59:05.441Z,0
2016-09-26T00:59:37.773Z,0
2016-09-26T01:00:10.110Z,0
2016-09-26T01:00:42.445Z,0
2016-09-26T01:01:14.800Z,0
2016-09-26T01:01:47.135Z,0
2016-09-26T01:02:19.465Z,0
2016-09-26T01:02:51.805Z,0
2016-09-26T01:03:24.141Z,0
2016-09-26T01:03:56.474Z,0
2016-09-26T01:04:28.797Z,0
2016-09-26T01:05:01.122Z,0
2016-09-26T01:05:33.464Z,0
2016-09-26T01:06:05.792Z,0
2016-09-26T01:06:38.095Z,0
2016-09-26T01:07:10.423Z,0
2016-09-26T01:07:42.747Z,0
2016-09-26T01:08:15.085Z,0
2016-09-26T01:08:47.419Z,0
2016-09-26T01:09:19.730Z,0
2016-09-26T01:09:52.050Z,0
2016-09-26T01:10:24.384Z,0
2016-09-26T01:10:56.713Z,0
2016-09-26T01:11:29.045Z,0
2016-09-26T01:12:01.375Z,0
2016-09-26T01:12:33.713Z,0
2016-09-26T01:13:06.036Z,0
2016-09-26T01:13:38.393Z,0
2016-09-26T01:14:10.727Z,0
2016-09-26T01:14:43.048Z,0
2016-09-26T01:15:15.380Z,0
2016-09-26T01:15:47.709Z,0
2016-09-26T01:16:20.029Z,0
2016-09-26T01:16:52.351Z,0
2016-09-26T01:17:24.669Z,0
2016-09-26T01:17:56.990Z,0
2016-09-26T01:18:29.319Z,0
2016-09-26T01:19:01.652Z,0
2016-09-26T01:19:33.989Z,0
2016-09-26T01:20:06.325Z,0
2016-09-26T01:20:38.665Z,0
2016-09-26T01:21:10.999Z,0
2016-09-26T01:21:43.328Z,0
2016-09-26T01:22:15.660Z,0
2016-09-26T01:22:47.991Z,0
2016-09-26T01:23:20.310Z,0
2016-09-26T01:23:52.643Z,0
2016-09-26T01:24:24.964Z,0
2016-09-26T01:24:57.285Z,0
2016-09-26T01:25:29.618Z,0
2016-09-26T01:26:01.949Z,0
2016-09-26T01:26:34.274Z,0
2016-09-26T01:27:06.606Z,0
2016-09-26T01:27:38.941Z,0
2016-09-26T01:28:11.282Z,0
2016-09-26T01:28:43.599Z,0
2016-09-26T01:29:15.926Z,0
2016-09-26T01:29:48.263Z,0
2016-09-26T01:30:20.608Z,0
2016-09-26T01:30:52.919Z,0
2016-09-26T01:31:25.256Z,0
2016-09-26T01:31:57.597Z,0
2016-09-26T01:32:29.923Z,0
2016-09-26T01:33:02.252Z,0
2016-09-26T01:33:34.589Z,0
2016-09-26T01:34:06.925Z,0
2016-09-26T01:34:39.265Z,0
2016-09-26T01:35:11.603Z,0
2016-09-26T01:35:43.934Z,0
2016-09-26T01:36:16.266Z,0
2016-09-26T01:36:48.602Z,0
2016-09-26T01:37:20.928Z,0
2016-09-26T01:37:53.273Z,0
2016-09-26T01:38:25.624Z,0
2016-09-26T01:38:57.957Z,0
2016-09-26T01:39:30.258Z,0
2016-09-26T01:40:02.595Z,0
2016-09-26T01:40:34.923Z,0
2016-09-26T01:41:07.254Z,0
2016-09-26T01:41:39.585Z,0
2016-09-26T01:42:11.903Z,0
2016-09-26T01:42:44.211Z,0
2016-09-26T01:43:16.533Z,0
2016-09-26T01:43:48.841Z,0
2016-09-26T01:44:21.160Z,0
2016-09-26T01:44:53.494Z,0
2016-09-26T01:45:25.801Z,0
2016-09-26T01:45:58.111Z,0
2016-09-26T01:46:30.441Z,0
2016-09-26T01:47:02.751Z,0
2016-09-26T01:47:35.072Z,0
2016-09-26T01:48:07.393Z,0
2016-09-26T01:48:39.704Z,0
2016-09-26T01:49:12.047Z,0
2016-09-26T01:49:44.366Z,0
2016-09-26T01:50:16.690Z,0
2016-09-26T01:50:49.013Z,0
2016-09-26T01:51:21.336Z,0
2016-09-26T01:51:53.644Z,0
2016-09-26T01:52:25.968Z,0
2016-09-26T01:52:58.300Z,0
2016-09-26T01:53:30.616Z,0
2016-09-26T01:54:02.933Z,0
2016-09-26T01:54:35.265Z,0
2016-09-26T01:55:07.587Z,0
2016-09-26T01:55:39.908Z,0
2016-09-26T01:56:12.245Z,0
2016-09-26T01:56:44.570Z,0
2016-09-26T01:57:16.883Z,0
2016-09-26T01:57:49.207Z,0
2016-09-26T01:58:21.521Z,0
2016-09-26T01:58:53.858Z,0
2016-09-26T01:59:26.189Z,0
2016-09-26T01:59:58.506Z,0
2016-09-26T02:00:30.843Z,0
2016-09-26T02:01:03.176Z,0
2016-09-26T02:01:35.502Z,0
2016-09-26T02:02:07.837Z,0
2016-09-26T02:02:40.165Z,0
2016-09-26T02:03:12.492Z,0
2016-09-26T02:03:44.815Z,0
2016-09-26T02:04:17.140Z,0
2016-09-26T02:04:49.472Z,0
2016-09-26T02:05:21.811Z,0
2016-09-26T02:05:54.140Z,0
2016-09-26T02:06:26.473Z,0
2016-09-26T02:06:58.806Z,0
2016-09-26T02:07:31.138Z,0
2016-09-26T02:08:03.458Z,0
2016-09-26T02:08:35.790Z,0
2016-09-26T02:09:08.118Z,0
2016-09-26T02:09:40.453Z,0
2016-09-26T02:10:12.782Z,0
2016-09-26T02:10:45.112Z,0
2016-09-26T02:11:17.448Z,0
2016-09-26T02:11:49.770Z,0
2016-09-26T02:12:22.103Z,0
2016-09-26T02:12:54.416Z,0
2016-09-26T02:13:26.750Z,0
2016-09-26T02:13:59.085Z,0
2016-09-26T02:14:31.420Z,0
2016-09-26T02:15:03.741Z,0
2016-09-26T02:15:36.066Z,0
2016-09-26T02:16:08.390Z,0
2016-09-26T02:16:40.719Z,0
2016-09-26T02:17:13.040Z,0
2016-09-26T02:17:45.360Z,0
2016-09-26T02:18:17.676Z,0
2016-09-26T02:18:50.001Z,0
2016-09-26T02:19:22.322Z,0
2016-09-26T02:19:54.631Z,0
2016-09-26T02:20:26.966Z,0
2016-09-26T02:20:59.300Z,0
2016-09-26T02:21:31.634Z,0
2016-09-26T02:22:03.964Z,0
2016-09-26T02:22:36.285Z,0
2016-09-26T02:23:08.611Z,0
2016-09-26T02:23:40.940Z,0
2016-09-26T02:24:13.272Z,0
2016-09-26T02:24:45.589Z,0
2016-09-26T02:25:17.915Z,0
2016-09-26T02:25:50.243Z,0
2016-09-26T02:26:22.558Z,0
2016-09-26T02:26:54.884Z,0
2016-09-26T02:27:27.220Z,0
2016-09-26T02:27:59.543Z,0
2016-09-26T02:28:31.864Z,0
2016-09-26T02:29:04.198Z,0
2016-09-26T02:29:36.540Z,0
2016-09-26T02:30:08.881Z,0
2016-09-26T02:30:41.212Z,0
2016-09-26T02:31:13.530Z,0
2016-09-26T02:31:45.869Z,0
2016-09-26T02:32:18.207Z,0
2016-09-26T02:32:50.541Z,0
2016-09-26T02:33:22.876Z,0
2016-09-26T02:33:55.198Z,0
2016-09-26T02:34:27.507Z,0
2016-09-26T02:34:59.831Z,0
2016-09-26T02:35:32.161Z,0
2016-09-26T02:36:04.480Z,0
2016-09-26T02:36:36.803Z,0
2016-09-26T02:37:09.130Z,0
2016-09-26T02:37:41.455Z,0
2016-09-26T02:38:13.802Z,0
2016-09-26T02:38:46.119Z,0
2016-09-26T02:39:18.441Z,0
2016-09-26T02:39:50.768Z,0
2016-09-26T02:40:23.094Z,0
2016-09-26T02:40:55.428Z,0
2016-09-26T02:41:27.757Z,0
2016-09-26T02:42:00.076Z,0
2016-09-26T02:42:32.405Z,0
2016-09-26T02:43:04.841Z,0
2016-09-26T02:43:37.169Z,0
2016-09-26T02:44:09.492Z,0
2016-09-26T02:44:41.816Z,0
2016-09-26T02:45:14.142Z,0
2016-09-26T02:45:46.469Z,0
2016-09-26T02:46:18.790Z,0
2016-09-26T02:46:51.126Z,0
2016-09-26T02:47:23.451Z,0
2016-09-26T02:47:55.767Z,0
2016-09-26T02:48:28.088Z,0
2016-09-26T02:49:00.413Z,0
2016-09-26T02:49:32.740Z,0
2016-09-26T02:50:05.071Z,0
2016-09-26T02:50:37.389Z,0
2016-09-26T02:51:09.724Z,0
2016-09-26T02:51:42.056Z,0
2016-09-26T02:52:14.378Z,0
2016-09-26T02:52:46.690Z,0
2016-09-26T02:53:19.028Z,0
2016-09-26T02:53:51.343Z,0
2016-09-26T02:54:23.670Z,0
2016-09-26T02:54:56.014Z,0
2016-09-26T02:55:28.328Z,0
2016-09-26T02:56:00.633Z,0
2016-09-26T02:56:32.968Z,0
2016-09-26T02:57:05.288Z,0
2016-09-26T02:57:37.614Z,0
2016-09-26T02:58:09.939Z,0
2016-09-26T02:58:42.259Z,0
2016-09-26T02:59:14.595Z,0
2016-09-26T02:59:46.924Z,0
2016-09-26T03:00:19.254Z,0
2016-09-26T03:00:51.581Z,0
2016-09-26T03:01:23.913Z,0
2016-09-26T03:01:56.227Z,0
2016-09-26T03:02:28.559Z,0
2016-09-26T03:03:00.896Z,0
2016-09-26T03:03:33.229Z,0
2016-09-26T03:04:05.560Z,0
2016-09-26T03:04:37.882Z,0
2016-09-26T03:05:10.217Z,0
2016-09-26T03:05:42.537Z,0
2016-09-26T03:06:14.859Z,0
2016-09-26T03:06:47.197Z,0
2016-09-26T03:07:19.518Z,0
2016-09-26T03:07:51.840Z,0
2016-09-26T03:08:24.163Z,0
2016-09-26T03:08:56.482Z,0
2016-09-26T03:09:28.797Z,0
2016-09-26T03:10:01.140Z,0
2016-09-26T03:10:33.455Z,0
2016-09-26T03:11:05.772Z,0
2016-09-26T03:11:38.101Z,0
2016-09-26T03:12:10.443Z,0
2016-09-26T03:12:42.767Z,0
2016-09-26T03:13:15.106Z,0
2016-09-26T03:13:47.452Z,0
2016-09-26T03:14:19.769Z,0
2016-09-26T03:14:52.081Z,0
2016-09-26T03:15:24.406Z,0
2016-09-26T03:15:56.718Z,0
2016-09-26T03:16:29.037Z,0
2016-09-26T03:17:01.357Z,0
2016-09-26T03:17:33.670Z,0
2016-09-26T03:18:05.996Z,0
2016-09-26T03:18:38.322Z,0
2016-09-26T03:19:10.655Z,0
2016-09-26T03:19:42.992Z,0
2016-09-26T03:20:15.324Z,0
2016-09-26T03:20:47.647Z,0
2016-09-26T03:21:19.975Z,0
2016-09-26T03:21:52.302Z,0
2016-09-26T03:22:24.624Z,0
2016-09-26T03:22:56.953Z,0
2016-09-26T03:23:29.279Z,0
2016-09-26T03:24:01.604Z,0
2016-09-26T03:24:33.955Z,0
2016-09-26T03:25:06.292Z,0
2016-09-26T03:25:38.617Z,0
2016-09-26T03:26:10.946Z,0
2016-09-26T03:26:43.286Z,0
2016-09-26T03:27:15.620Z,0
2016-09-26T03:27:47.942Z,0
2016-09-26T03:28:20.271Z,0
2016-09-26T03:28:52.588Z,0
2016-09-26T03:29:24.920Z,0
2016-09-26T03:29:57.247Z,0
2016-09-26T03:30:29.570Z,0
2016-09-26T03:31:01.897Z,0
2016-09-26T03:31:34.231Z,0
2016-09-26T03:32:06.545Z,0
2016-09-26T03:32:38.873Z,0
2016-09-26T03:33:11.200Z,0
2016-09-26T03:33:43.520Z,0
2016-09-26T03:34:15.875Z,0
2016-09-26T03:34:48.211Z,0
2016-09-26T03:35:20.544Z,0
2016-09-26T03:35:52.865Z,0
2016-09-26T03:36:25.207Z,0
2016-09-26T03:36:57.535Z,0
2016-09-26T03:37:29.859Z,0
2016-09-26T03:38:02.176Z,0
2016-09-26T03:38:34.488Z,0
2016-09-26T03:39:06.817Z,0
2016-09-26T03:39:39.157Z,0
2016-09-26T03:40:11.480Z,0
2016-09-26T03:40:43.837Z,0
2016-09-26T03:41:16.180Z,0
2016-09-26T03:41:48.494Z,0
2016-09-26T03:42:20.819Z,0
2016-09-26T03:42:53.138Z,0
2016-09-26T03:43:25.454Z,0
2016-09-26T03:43:57.767Z,0
2016-09-26T03:44:30.085Z,0
2016-09-26T03:45:02.421Z,0
2016-09-26T03:45:34.756Z,0
2016-09-26T03:46:07.125Z,0
2016-09-26T03:46:39.452Z,0
2016-09-26T03:47:11.790Z,0
2016-09-26T03:47:44.099Z,0
2016-09-26T03:48:16.429Z,0
2016-09-26T03:48:48.756Z,0
2016-09-26T03:49:21.082Z,0
2016-09-26T03:49:53.409Z,0
2016-09-26T03:50:25.728Z,0
2016-09-26T03:50:58.052Z,0
2016-09-26T03:51:30.369Z,0
2016-09-26T03:52:02.703Z,0
2016-09-26T03:52:35.042Z,0
2016-09-26T03:53:07.358Z,0
2016-09-26T03:53:39.714Z,0
2016-09-26T03:54:12.051Z,0
2016-09-26T03:54:44.391Z,0
2016-09-26T03:55:16.723Z,0
2016-09-26T03:55:49.051Z,0
2016-09-26T03:56:21.381Z,0
2016-09-26T03:56:53.706Z,0
2016-09-26T03:57:26.041Z,0
2016-09-26T03:57:58.377Z,0
2016-09-26T03:58:30.702Z,0
2016-09-26T03:59:03.016Z,0
2016-09-26T03:59:35.350Z,0
2016-09-26T04:00:07.688Z,0
2016-09-26T04:00:40.009Z,0
2016-09-26T04:01:12.336Z,0
2016-09-26T04:01:44.662Z,0
2016-09-26T04:02:16.990Z,0
2016-09-26T04:02:49.430Z,0
2016-09-26T04:03:21.744Z,0
2016-09-26T04:03:54.079Z,0
2016-09-26T04:04:26.434Z,0
2016-09-26T04:04:58.759Z,0
2016-09-26T04:05:31.086Z,0
2016-09-26T04:06:03.418Z,0
2016-09-26T04:06:35.749Z,0
2016-09-26T04:07:08.084Z,0
2016-09-26T04:07:40.415Z,0
2016-09-26T04:08:12.735Z,0
2016-09-26T04:08:45.054Z,0
2016-09-26T04:09:17.362Z,0
2016-09-26T04:09:49.704Z,0
2016-09-26T04:10:22.022Z,0
2016-09-26T04:10:54.344Z,0
2016-09-26T04:11:26.653Z,0
2016-09-26T04:11:58.974Z,0
2016-09-26T04:12:31.308Z,0
2016-09-26T04:13:03.632Z,0
2016-09-26T04:13:35.973Z,0
2016-09-26T04:14:08.297Z,0
2016-09-26T04:14:40.627Z,0
2016-09-26T04:15:12.960Z,0
2016-09-26T04:15:45.286Z,0
2016-09-26T04:16:17.624Z,0
2016-09-26T04:16:49.951Z,0
2016-09-26T04:17:22.285Z,0
2016-09-26T04:17:54.624Z,0
2016-09-26T04:18:26.954Z,0
2016-09-26T04:18:59.277Z,0
2016-09-26T04:19:31.604Z,0
2016-09-26T04:20:03.922Z,0
2016-09-26T04:20:36.254Z,0
2016-09-26T04:21:08.590Z,0
2016-09-26T04:21:40.909Z,0
2016-09-26T04:22:13.234Z,0
2016-09-26T04:22:45.563Z,0
2016-09-26T04:23:17.880Z,0
2016-09-26T04:23:50.217Z,0
2016-09-26T04:24:22.548Z,0
2016-09-26T04:24:54.871Z,0
2016-09-26T04:25:27.207Z,0
2016-09-26T04:25:59.533Z,0
2016-09-26T04:26:31.875Z,0
2016-09-26T04:27:04.191Z,0
2016-09-26T04:27:36.519Z,0
2016-09-26T04:28:08.858Z,0
2016-09-26T04:28:41.176Z,0
2016-09-26T04:29:13.496Z,0
2016-09-26T04:29:45.827Z,0
2016-09-26T04:30:18.160Z,0
2016-09-26T04:30:50.477Z,0
2016-09-26T04:31:22.809Z,0
2016-09-26T04:31:55.135Z,0
2016-09-26T04:32:27.474Z,0
2016-09-26T04:32:59.816Z,0
2016-09-26T04:33:32.138Z,0
2016-09-26T04:34:04.467Z,0
2016-09-26T04:34:36.788Z,0
2016-09-26T04:35:09.119Z,0
2016-09-26T04:35:41.450Z,0
2016-09-26T04:36:13.788Z,0
2016-09-26T04:36:46.121Z,0
2016-09-26T04:37:18.458Z,0
2016-09-26T04:37:50.791Z,0
2016-09-26T04:38:23.120Z,0
2016-09-26T04:38:55.450Z,0
2016-09-26T04:39:27.778Z,0
2016-09-26T04:40:00.096Z,0
2016-09-26T04:40:32.421Z,0
2016-09-26T04:41:04.747Z,0
2016-09-26T04:41:37.058Z,0
2016-09-26T04:42:09.385Z,0
2016-09-26T04:42:41.718Z,0
2016-09-26T04:43:14.035Z,0
2016-09-26T04:43:46.356Z,0
2016-09-26T04:44:18.690Z,0
2016-09-26T04:44:51.012Z,0
2016-09-26T04:45:23.332Z,0
2016-09-26T04:45:55.664Z,0
2016-09-26T04:46:27.995Z,0
2016-09-26T04:47:00.321Z,0
2016-09-26T04:47:32.643Z,0
2016-09-26T04:48:04.975Z,0
2016-09-26T04:48:37.314Z,0
2016-09-26T04:49:09.687Z,0
2016-09-26T04:49:42.014Z,0
2016-09-26T04:50:14.339Z,0
2016-09-26T04:50:46.643Z,0
2016-09-26T04:51:18.963Z,0
2016-09-26T04:51:51.298Z,0
2016-09-26T04:52:23.619Z,0
2016-09-26T04:52:55.934Z,0
2016-09-26T04:53:28.277Z,0
2016-09-26T04:54:00.602Z,0
2016-09-26T04:54:32.923Z,0
2016-09-26T04:55:05.270Z,0
2016-09-26T04:55:37.598Z,0
2016-09-26T04:56:09.924Z,0
2016-09-26T04:56:42.268Z,0
2016-09-26T04:57:14.586Z,0
2016-09-26T04:57:46.920Z,0
2016-09-26T04:58:19.243Z,0
2016-09-26T04:58:51.566Z,0
2016-09-26T04:59:23.896Z,0
2016-09-26T04:59:56.226Z,0
2016-09-26T05:00:28.549Z,0
2016-09-26T05:01:00.897Z,0
2016-09-26T05:01:33.327Z,0
2016-09-26T05:02:05.666Z,0
2016-09-26T05:02:38.011Z,0
2016-09-26T05:03:10.341Z,0
2016-09-26T05:03:43.414Z,0
2016-09-26T05:04:15.739Z,0
2016-09-26T05:04:49.064Z,0
2016-09-26T05:05:21.380Z,0
2016-09-26T05:05:53.712Z,0
2016-09-26T05:06:26.061Z,0
2016-09-26T05:06:58.408Z,0
2016-09-26T05:07:30.737Z,0
2016-09-26T05:08:03.054Z,0
2016-09-26T05:08:35.384Z,0
2016-09-26T05:09:07.719Z,0
2016-09-26T05:09:40.055Z,0
2016-09-26T05:10:12.387Z,0
2016-09-26T05:10:44.715Z,0
2016-09-26T05:11:17.038Z,0
2016-09-26T05:11:49.372Z,0
2016-09-26T05:12:21.692Z,0
2016-09-26T05:12:54.036Z,0
2016-09-26T05:13:26.353Z,0
2016-09-26T05:13:58.666Z,0
2016-09-26T05:14:30.988Z,0
2016-09-26T05:15:03.316Z,0
2016-09-26T05:15:35.635Z,0
2016-09-26T05:16:07.984Z,0
2016-09-26T05:16:40.306Z,0
2016-09-26T05:17:12.622Z,0
2016-09-26T05:17:44.961Z,0
2016-09-26T05:18:17.300Z,0
2016-09-26T05:18:49.603Z,0
2016-09-26T05:19:21.927Z,0
2016-09-26T05:19:54.279Z,0
2016-09-26T05:20:26.607Z,0
2016-09-26T05:20:58.961Z,0
2016-09-26T05:21:31.280Z,0
2016-09-26T05:22:05.210Z,0
2016-09-26T05:22:37.536Z,0
2016-09-26T05:23:09.844Z,0
2016-09-26T05:23:42.168Z,0
2016-09-26T05:24:14.490Z,0
2016-09-26T05:24:46.816Z,0
2016-09-26T05:25:19.121Z,0
2016-09-26T05:25:51.454Z,0
2016-09-26T05:26:23.777Z,0
2016-09-26T05:26:56.102Z,0
2016-09-26T05:27:28.439Z,0
2016-09-26T05:28:00.763Z,0
2016-09-26T05:28:33.105Z,0
2016-09-26T05:29:05.429Z,0
2016-09-26T05:29:37.762Z,0
2016-09-26T05:30:10.092Z,0
2016-09-26T05:30:42.425Z,0
2016-09-26T05:31:14.748Z,0
2016-09-26T05:31:48.159Z,0
2016-09-26T05:32:20.491Z,0
2016-09-26T05:32:52.817Z,0
2016-09-26T05:33:25.140Z,0
2016-09-26T05:33:57.484Z,0
2016-09-26T05:34:32.590Z,0
2016-09-26T05:35:05.172Z,0
2016-09-26T05:35:37.803Z,0
2016-09-26T05:36:10.437Z,0
2016-09-26T05:36:45.073Z,5
2016-09-26T05:37:17.629Z,5
2016-09-26T05:37:51.075Z,5
2016-09-26T05:38:23.576Z,5
2016-09-26T05:38:56.107Z,5
2016-09-26T05:39:28.709Z,5
2016-09-26T05:40:01.442Z,5
2016-09-26T05:40:33.999Z,5
2016-09-26T05:41:07.779Z,5
2016-09-26T05:41:40.400Z,5
2016-09-26T05:42:12.946Z,5
2016-09-26T05:42:45.509Z,5
2016-09-26T05:43:17.957Z,5
2016-09-26T05:43:50.626Z,5
2016-09-26T05:44:23.586Z,5
2016-09-26T05:44:55.994Z,5
2016-09-26T05:45:28.314Z,5
2016-09-26T05:46:01.531Z,5
2016-09-26T05:46:33.848Z,5
2016-09-26T05:47:06.177Z,5
2016-09-26T05:47:38.511Z,5
2016-09-26T05:48:10.851Z,5
2016-09-26T05:48:43.200Z,5
2016-09-26T05:49:17.036Z,5
2016-09-26T05:49:49.645Z,10
2016-09-26T05:50:21.966Z,10
2016-09-26T05:50:54.306Z,10
2016-09-26T05:51:27.510Z,10
2016-09-26T05:51:59.830Z,10
2016-09-26T05:52:32.173Z,10
2016-09-26T05:53:04.485Z,10
2016-09-26T05:53:36.805Z,10
2016-09-26T05:54:09.150Z,10
2016-09-26T05:54:41.458Z,10
2016-09-26T05:55:13.821Z,10
2016-09-26T05:55:46.150Z,10
2016-09-26T05:56:18.476Z,10
2016-09-26T05:56:50.785Z,10
2016-09-26T05:57:23.101Z,10
2016-09-26T05:57:57.541Z,10
2016-09-26T05:58:29.972Z,10
2016-09-26T05:59:03.040Z,10
2016-09-26T05:59:35.992Z,10
2016-09-26T06:00:08.561Z,10
2016-09-26T06:00:41.589Z,10
2016-09-26T06:01:14.160Z,15
2016-09-26T06:01:46.519Z,15
2016-09-26T06:02:19.792Z,15
2016-09-26T06:02:52.149Z,15
2016-09-26T06:03:24.471Z,15
2016-09-26T06:03:56.841Z,15
2016-09-26T06:04:29.160Z,15
2016-09-26T06:05:02.604Z,15
2016-09-26T06:05:34.931Z,15
2016-09-26T06:06:07.252Z,15
2016-09-26T06:06:39.546Z,15
2016-09-26T06:07:11.864Z,15
2016-09-26T06:07:44.260Z,15
2016-09-26T06:08:16.584Z,15
2016-09-26T06:08:48.920Z,15
2016-09-26T06:09:21.239Z,15
2016-09-26T06:09:53.577Z,15
2016-09-26T06:10:25.900Z,15
2016-09-26T06:10:58.261Z,15
2016-09-26T06:11:30.582Z,15
2016-09-26T06:12:03.550Z,15
2016-09-26T06:12:35.882Z,15
2016-09-26T06:13:08.198Z,15
2016-09-26T06:13:40.523Z,15
2016-09-26T06:14:12.848Z,15
2016-09-26T06:14:45.178Z,15
2016-09-26T06:15:17.548Z,15
2016-09-26T06:15:49.864Z,15
2016-09-26T06:16:23.155Z,15
2016-09-26T06:16:56.465Z,15
2016-09-26T06:17:28.912Z,15
2016-09-26T06:18:01.242Z,15
2016-09-26T06:18:34.619Z,15
2016-09-26T06:19:07.004Z,15
2016-09-26T06:19:40.434Z,15
2016-09-26T06:20:15.088Z,15
2016-09-26T06:20:49.594Z,20
2016-09-26T06:21:23.101Z,20
2016-09-26T06:22:00.599Z,20
2016-09-26T06:22:36.586Z,20
2016-09-26T06:23:10.000Z,20
2016-09-26T06:23:43.678Z,20
2016-09-26T06:24:18.055Z,20
2016-09-26T06:24:50.505Z,20
2016-09-26T06:25:24.095Z,20
2016-09-26T06:25:56.568Z,20
2016-09-26T06:26:28.948Z,20
2016-09-26T06:27:01.308Z,20
2016-09-26T06:27:33.716Z,20
2016-09-26T06:28:07.507Z,20
2016-09-26T06:28:39.892Z,20
2016-09-26T06:29:15.122Z,20
2016-09-26T06:29:49.252Z,20
2016-09-26T06:30:26.329Z,20
2016-09-26T06:31:00.094Z,20
2016-09-26T06:31:34.129Z,20
2016-09-26T06:32:11.094Z,20
2016-09-26T06:32:45.140Z,20
2016-09-26T06:33:22.601Z,20
2016-09-26T06:33:57.596Z,20
2016-09-26T06:34:31.158Z,20
2016-09-26T06:35:05.278Z,20
2016-09-26T06:35:38.880Z,20
2016-09-26T06:36:12.750Z,20
2016-09-26T06:36:46.374Z,20
2016-09-26T06:37:21.682Z,20
2016-09-26T06:37:55.335Z,20
2016-09-26T06:38:28.104Z,20
2016-09-26T06:39:00.440Z,20
2016-09-26T06:39:32.773Z,25
2016-09-26T06:40:05.099Z,25
2016-09-26T06:40:37.578Z,25
2016-09-26T06:41:09.974Z,25
2016-09-26T06:41:42.311Z,25
2016-09-26T06:42:14.635Z,25
2016-09-26T06:42:46.976Z,25
2016-09-26T06:43:34.047Z,25
2016-09-26T06:44:06.374Z,25
2016-09-26T06:44:38.709Z,25
2016-09-26T06:45:11.030Z,25
2016-09-26T06:45:44.818Z,25
2016-09-26T06:46:17.970Z,25
2016-09-26T06:46:50.419Z,25
2016-09-26T06:47:22.758Z,25
2016-09-26T06:47:57.599Z,25
2016-09-26T06:48:30.234Z,25
2016-09-26T06:49:02.600Z,25
2016-09-26T06:49:35.091Z,30
2016-09-26T06:50:07.427Z,30
2016-09-26T06:50:39.840Z,30
2016-09-26T06:51:13.375Z,30
2016-09-26T06:51:45.967Z,45
2016-09-26T06:52:18.492Z,35
2016-09-26T06:52:51.635Z,30
2016-09-26T06:53:27.237Z,30
2016-09-26T06:54:03.262Z,35
2016-09-26T06:54:36.162Z,35
2016-09-26T06:55:08.490Z,40
2016-09-26T06:55:44.549Z,50
2016-09-26T06:56:16.878Z,55
2016-09-26T06:56:49.344Z,50
2016-09-26T06:57:22.546Z,40
2016-09-26T06:57:57.044Z,60
2016-09-26T06:58:29.370Z,55
2016-09-26T06:59:02.855Z,75
2016-09-26T06:59:35.657Z,70
2016-09-26T07:00:08.139Z,70
2016-09-26T07:00:40.555Z,70
2016-09-26T07:01:12.877Z,75
2016-09-26T07:01:45.214Z,75
2016-09-26T07:02:17.535Z,70
2016-09-26T07:02:49.876Z,75
2016-09-26T07:03:22.195Z,70
2016-09-26T07:03:54.559Z,65
2016-09-26T07:04:27.434Z,75
2016-09-26T07:05:01.211Z,75
2016-09-26T07:05:34.822Z,75
2016-09-26T07:06:08.566Z,75
2016-09-26T07:06:43.252Z,75
2016-09-26T07:07:16.924Z,80
2016-09-26T07:07:50.617Z,80
2016-09-26T07:08:24.460Z,80
2016-09-26T07:08:58.056Z,80
2016-09-26T07:09:32.584Z,80
2016-09-26T07:10:06.222Z,80
2016-09-26T07:10:39.841Z,75
2016-09-26T07:11:12.743Z,80
2016-09-26T07:11:46.451Z,80
2016-09-26T07:12:20.182Z,80
2016-09-26T07:12:54.490Z,80
2016-09-26T07:13:28.046Z,80
2016-09-26T07:14:00.430Z,80
2016-09-26T07:14:32.938Z,80
2016-09-26T07:15:08.606Z,80
2016-09-26T07:15:41.095Z,80
2016-09-26T07:16:20.621Z,80
2016-09-26T07:16:57.108Z,80
2016-09-26T07:17:32.619Z,80
2016-09-26T07:18:12.634Z,80
2016-09-26T07:18:50.157Z,80
2016-09-26T07:19:27.134Z,80
2016-09-26T07:20:07.132Z,80
2016-09-26T07:20:43.131Z,80
2016-09-26T07:21:17.375Z,80
2016-09-26T07:21:57.619Z,85
2016-09-26T07:22:34.415Z,85
2016-09-26T07:23:10.616Z,85
2016-09-26T07:23:50.616Z,85
2016-09-26T07:24:29.088Z,85
2016-09-26T07:25:06.868Z,85
2016-09-26T07:25:42.318Z,85
2016-09-26T07:26:17.339Z,80
2016-09-26T07:26:50.553Z,80
2016-09-26T07:27:22.863Z,80
2016-09-26T07:27:55.191Z,80
2016-09-26T07:28:27.516Z,80
2016-09-26T07:28:59.838Z,80
2016-09-26T07:29:32.499Z,85
2016-09-26T07:30:04.825Z,85
2016-09-26T07:30:37.154Z,85
2016-09-26T07:31:09.470Z,85
2016-09-26T07:31:41.867Z,90
2016-09-26T07:32:14.240Z,90
2016-09-26T07:32:46.700Z,90
2016-09-26T07:33:19.038Z,95
2016-09-26T07:33:51.369Z,95
2016-09-26T07:34:23.696Z,95
2016-09-26T07:34:56.027Z,95
2016-09-26T07:35:28.352Z,95
2016-09-26T07:36:00.679Z,90
2016-09-26T07:36:33.051Z,90
2016-09-26T07:37:05.391Z,90
2016-09-26T07:37:37.721Z,95
2016-09-26T07:38:10.059Z,95
2016-09-26T07:38:42.412Z,95
2016-09-26T07:39:15.529Z,95
2016-09-26T07:39:47.860Z,95
2016-09-26T07:40:20.177Z,90
2016-09-26T07:40:52.560Z,100
2016-09-26T07:41:24.877Z,95
2016-09-26T07:41:57.417Z,95
2016-09-26T07:42:31.130Z,95
2016-09-26T07:43:03.462Z,95
2016-09-26T07:43:35.773Z,95
2016-09-26T07:44:08.115Z,95
2016-09-26T07:44:40.446Z,90
2016-09-26T07:45:12.775Z,90
2016-09-26T07:45:45.108Z,95
2016-09-26T07:46:17.423Z,95
2016-09-26T07:46:49.760Z,95
2016-09-26T07:47:22.085Z,95
2016-09-26T07:47:54.636Z,95
2016-09-26T07:48:26.978Z,100
2016-09-26T07:48:59.302Z,100
2016-09-26T07:49:31.630Z,100
2016-09-26T07:50:03.941Z,100
2016-09-26T07:50:36.322Z,105
2016-09-26T07:51:08.751Z,105
2016-09-26T07:51:41.116Z,105
2016-09-26T07:52:13.538Z,105
2016-09-26T07:52:45.866Z,105
2016-09-26T07:53:18.194Z,105
2016-09-26T07:53:50.710Z,105
2016-09-26T07:54:23.077Z,105
2016-09-26T07:54:57.154Z,105
2016-09-26T07:55:29.481Z,105
2016-09-26T07:56:01.785Z,105
2016-09-26T07:56:34.316Z,110
2016-09-26T07:57:06.636Z,110
2016-09-26T07:57:38.949Z,110